Time;durP1;ratioP1;P1;durP2;ratioP2;P2;SDS_P1;SDS_P2;PMS_P1;PMS_P2;Temp;Humidity;BMP_temperature;BMP_pressure;BME280_temperature;BME280_humidity;BME280_pressure;Samples;Min_cycle;Max_cycle;Signal;HPM_P1;HPM_P2
2024/02/08 00:01:25;;;;;;;8.32;1.63;;;;;;;4.76;88.72;99324.56;4986148;28;20081;-60
2024/02/08 00:03:53;;;;;;;5.57;1.30;;;;;;;4.76;88.84;99317.16;4986205;28;20447;-60
2024/02/08 00:06:20;;;;;;;7.00;1.73;;;;;;;4.78;89.14;99311.31;4987359;28;20042;-60
2024/02/08 00:08:53;;;;;;;6.00;1.40;;;;;;;4.77;88.63;99301.50;4987392;28;20042;-60
2024/02/08 00:11:20;;;;;;;10.80;2.00;;;;;;;4.76;89.04;99299.91;4986946;28;20054;-60
2024/02/08 00:13:48;;;;;;;5.40;1.70;;;;;;;4.77;89.09;99294.06;4987417;28;20047;-60
2024/02/08 00:16:15;;;;;;;10.30;1.77;;;;;;;4.79;89.06;99296.47;4986919;28;20054;-60
2024/02/08 00:18:44;;;;;;;5.95;0.93;;;;;;;4.81;89.23;99291.44;4970072;28;20050;-60
2024/02/08 00:21:14;;;;;;;6.13;2.17;;;;;;;4.82;89.32;99290.28;4986814;28;20058;-60
2024/02/08 00:23:43;;;;;;;7.10;0.70;;;;;;;4.81;89.25;99278.53;4987017;28;20404;-60
2024/02/08 00:26:10;;;;;;;4.43;1.15;;;;;;;4.81;89.10;99281.28;4986820;28;20471;-60
2024/02/08 00:28:39;;;;;;;3.47;0.93;;;;;;;4.83;89.00;99265.28;4987029;28;20053;-60
2024/02/08 00:31:07;;;;;;;9.05;1.58;;;;;;;4.82;89.29;99251.91;4983080;28;20049;-60
2024/02/08 00:33:34;;;;;;;5.88;0.88;;;;;;;4.84;89.18;99252.38;4986648;28;20058;-60
2024/02/08 00:36:02;;;;;;;9.48;1.83;;;;;;;4.84;89.23;99236.72;4986653;28;20046;-60
2024/02/08 00:38:29;;;;;;;5.03;1.10;;;;;;;4.85;89.32;99232.03;4986845;28;20050;-60
2024/02/08 00:40:57;;;;;;;6.28;1.08;;;;;;;4.85;89.35;99229.28;4987165;28;20432;-60
2024/02/08 00:43:25;;;;;;;3.55;1.52;;;;;;;4.85;89.25;99235.56;4986856;28;20053;-62
2024/02/08 00:45:54;;;;;;;10.60;1.38;;;;;;;4.85;89.90;99245.75;4986087;28;20500;-60
2024/02/08 00:48:22;;;;;;;4.60;0.93;;;;;;;4.86;89.66;99219.94;4987291;28;20512;-60
2024/02/08 00:50:49;;;;;;;3.35;1.40;;;;;;;4.87;89.39;99216.84;4987030;28;20050;-60
2024/02/08 00:53:19;;;;;;;6.93;1.50;;;;;;;4.87;89.61;99218.81;4986570;28;20050;-60
2024/02/08 00:55:46;;;;;;;6.40;0.98;;;;;;;4.86;89.21;99214.44;4986723;28;20051;-60
2024/02/08 00:58:15;;;;;;;7.72;1.05;;;;;;;4.87;89.42;99202.34;4986777;28;20069;-60
2024/02/08 01:00:43;;;;;;;5.80;1.25;;;;;;;4.87;89.70;99205.09;4986348;28;20508;-60
2024/02/08 01:03:10;;;;;;;3.25;1.10;;;;;;;4.88;89.64;99212.97;4956837;28;20054;-60
2024/02/08 01:05:38;;;;;;;4.00;0.65;;;;;;;4.88;89.62;99206.66;4978243;28;20077;-60
2024/02/08 01:08:06;;;;;;;6.68;1.00;;;;;;;4.90;89.91;99190.66;4986318;28;20065;-60
2024/02/08 01:10:34;;;;;;;9.48;1.20;;;;;;;4.90;89.75;99187.91;4989666;28;20050;-60
2024/02/08 01:13:01;;;;;;;2.47;1.67;;;;;;;4.90;89.69;99193.41;4990623;28;20042;-60
2024/02/08 01:15:28;;;;;;;4.40;0.70;;;;;;;4.92;89.94;99196.63;4990594;28;20074;-59
2024/02/08 01:17:56;;;;;;;6.53;1.20;;;;;;;4.91;89.91;99193.06;4987440;28;20034;-60
2024/02/08 01:20:27;;;;;;;3.75;1.15;;;;;;;4.92;90.25;99180.16;4990445;28;20059;-61
2024/02/08 01:22:57;;;;;;;3.20;0.65;;;;;;;4.91;90.04;99173.88;4978368;28;20050;-60
2024/02/08 01:25:25;;;;;;;7.78;1.20;;;;;;;4.92;90.38;99171.94;4989877;28;20578;-60
2024/02/08 01:27:52;;;;;;;8.27;1.05;;;;;;;4.92;89.84;99163.72;4990356;28;20046;-60
2024/02/08 01:30:24;;;;;;;6.15;0.93;;;;;;;4.92;90.45;99158.22;4989741;28;20058;-60
2024/02/08 01:32:53;;;;;;;6.07;1.58;;;;;;;4.92;90.35;99148.03;4990471;28;20057;-60
2024/02/08 01:35:24;;;;;;;4.05;1.15;;;;;;;4.91;90.42;99145.66;4990139;28;20046;-60
2024/02/08 01:37:53;;;;;;;7.23;1.27;;;;;;;4.92;90.25;99125.31;4990078;28;20512;-60
2024/02/08 01:40:22;;;;;;;5.40;0.88;;;;;;;4.91;89.97;99126.47;4989346;28;20053;-61
2024/02/08 01:42:57;;;;;;;5.07;0.73;;;;;;;4.91;90.26;99120.97;4990009;28;20050;-60
2024/02/08 01:45:37;;;;;;;5.50;1.70;;;;;;;4.90;90.17;99111.94;4990546;28;20077;-60
2024/02/08 01:48:10;;;;;;;5.18;1.20;;;;;;;4.91;90.12;99107.25;4989667;28;20081;-60
2024/02/08 01:50:44;;;;;;;10.23;1.33;;;;;;;4.90;90.31;99100.97;4989277;28;20068;-60
2024/02/08 01:53:18;;;;;;;5.03;0.98;;;;;;;4.91;90.17;99096.31;4989905;28;20467;-60
2024/02/08 01:55:52;;;;;;;7.47;1.00;;;;;;;4.91;90.27;99099.03;4989726;28;20060;-60
2024/02/08 01:58:23;;;;;;;5.38;1.00;;;;;;;4.91;90.30;99080.66;4989759;28;20050;-60
2024/02/08 02:00:52;;;;;;;3.53;0.82;;;;;;;4.91;90.09;99068.88;4988414;28;20046;-60
2024/02/08 02:03:23;;;;;;;4.35;1.05;;;;;;;4.91;90.57;99074.38;4989270;28;20771;-60
2024/02/08 02:05:51;;;;;;;9.32;1.58;;;;;;;4.91;90.48;99052.44;4989634;28;20409;-60
2024/02/08 02:08:21;;;;;;;6.18;0.90;;;;;;;4.90;90.37;99050.81;4989905;28;20608;-60
2024/02/08 02:11:11;;;;;;;6.07;1.20;;;;;;;4.90;90.42;99045.34;4989091;28;20069;-60
2024/02/08 02:13:42;;;;;;;1.98;0.70;;;;;;;4.90;90.17;99045.34;4989702;28;20050;-60
2024/02/08 02:16:09;;;;;;;5.47;0.93;;;;;;;4.90;90.12;99035.16;4989041;28;20496;-59
2024/02/08 02:18:39;;;;;;;5.40;1.35;;;;;;;4.90;90.37;99024.19;4989426;28;20548;-60
2024/02/08 02:21:13;;;;;;;8.13;1.08;;;;;;;4.89;90.31;99024.56;4988449;28;20057;-60
2024/02/08 02:23:41;;;;;;;3.85;1.00;;;;;;;4.88;90.36;99020.22;4988732;28;20050;-63
2024/02/08 02:26:12;;;;;;;3.15;1.40;;;;;;;4.86;90.56;99017.84;4976553;28;20516;-60
2024/02/08 02:28:42;;;;;;;5.38;0.90;;;;;;;4.83;90.51;99017.72;4989122;28;20055;-59
2024/02/08 02:31:13;;;;;;;5.32;1.33;;;;;;;4.76;90.80;99017.53;4989232;28;20061;-59
2024/02/08 02:33:42;;;;;;;8.60;1.27;;;;;;;4.75;90.97;99032.38;4988764;28;20050;-59
2024/02/08 02:36:12;;;;;;;3.05;1.35;;;;;;;4.70;91.35;99010.69;4989184;28;20057;-59
2024/02/08 02:38:41;;;;;;;5.40;0.98;;;;;;;4.63;91.06;99018.72;4988923;28;20046;-59
2024/02/08 02:41:08;;;;;;;1.45;1.02;;;;;;;4.54;91.22;98999.69;4988680;28;20054;-59
2024/02/08 02:43:37;;;;;;;3.38;0.95;;;;;;;4.46;91.28;98988.84;4989163;28;20035;-59
2024/02/08 02:46:05;;;;;;;2.63;0.52;;;;;;;4.37;91.34;98996.44;4988939;28;20046;-59
2024/02/08 02:48:34;;;;;;;0.63;0.20;;;;;;;4.28;90.29;98980.94;4988687;28;20563;-59
2024/02/08 02:51:02;;;;;;;4.75;0.70;;;;;;;4.25;90.87;98976.13;4988796;28;20046;-59
2024/02/08 02:53:30;;;;;;;2.13;0.75;;;;;;;4.21;90.90;98969.75;4988655;28;20064;-58
2024/02/08 02:55:58;;;;;;;5.32;1.02;;;;;;;4.18;91.15;98967.69;4988888;28;20061;-59
2024/02/08 02:58:26;;;;;;;3.28;0.60;;;;;;;4.12;90.77;98957.34;4987629;28;20408;-60
2024/02/08 03:01:04;;;;;;;2.92;0.77;;;;;;;4.02;90.99;98950.41;5061431;22;20058;-60
2024/02/08 03:03:40;;;;;;;3.88;0.50;;;;;;;3.95;90.81;98938.41;4987570;28;20055;-60
2024/02/08 03:06:14;;;;;;;1.50;0.60;;;;;;;3.89;91.59;98935.13;4987695;28;20054;-59
2024/02/08 03:08:44;;;;;;;1.27;0.60;;;;;;;3.86;91.63;98918.59;4987565;28;20081;-60
2024/02/08 03:11:13;;;;;;;4.18;1.38;;;;;;;3.81;91.75;98916.91;4988378;28;20489;-60
2024/02/08 03:13:42;;;;;;;3.85;1.08;;;;;;;3.76;91.81;98921.81;4988043;28;20050;-59
2024/02/08 03:16:10;;;;;;;6.30;1.45;;;;;;;3.72;92.13;98913.50;4987841;28;20045;-59
2024/02/08 03:18:45;;;;;;;3.45;0.90;;;;;;;3.68;91.74;98913.38;4987467;28;20054;-59
2024/02/08 03:21:17;;;;;;;3.28;1.00;;;;;;;3.66;92.27;98904.72;4988069;28;20047;-59
2024/02/08 03:23:49;;;;;;;4.47;0.55;;;;;;;3.67;92.41;98902.78;4987907;28;20054;-60
2024/02/08 03:26:17;;;;;;;3.63;0.75;;;;;;;3.68;92.46;98898.88;4987738;28;20058;-59
2024/02/08 03:28:46;;;;;;;1.60;0.47;;;;;;;3.64;92.26;98900.72;4987099;28;20701;-61
2024/02/08 03:31:14;;;;;;;2.38;0.65;;;;;;;3.58;92.60;98891.16;4987982;28;20042;-59
2024/02/08 03:33:43;;;;;;;3.75;0.60;;;;;;;3.54;92.81;98887.53;4985244;28;20054;-59
2024/02/08 03:36:12;;;;;;;5.47;1.08;;;;;;;3.45;92.46;98876.69;4987707;28;20061;-59
2024/02/08 03:38:39;;;;;;;2.90;0.88;;;;;;;3.37;92.56;98874.06;4987848;28;20053;-59
2024/02/08 03:41:07;;;;;;;3.05;0.65;;;;;;;3.28;92.58;98867.94;4970461;28;20504;-60
2024/02/08 03:43:35;;;;;;;5.65;0.65;;;;;;;3.23;93.00;98862.72;4987679;28;20536;-58
2024/02/08 03:46:07;;;;;;;2.33;0.68;;;;;;;3.17;93.10;98858.59;4967140;28;20046;-58
2024/02/08 03:48:36;;;;;;;2.15;1.30;;;;;;;3.15;93.42;98848.00;4985527;28;20049;-59
2024/02/08 03:51:04;;;;;;;4.20;0.63;;;;;;;3.14;93.41;98838.22;4987570;28;20055;-59
2024/02/08 03:53:36;;;;;;;5.65;1.20;;;;;;;3.14;93.65;98826.47;4987422;28;20057;-58
2024/02/08 03:56:06;;;;;;;4.57;0.85;;;;;;;3.14;93.65;98815.53;4987243;28;20122;-59
2024/02/08 03:58:36;;;;;;;3.15;0.65;;;;;;;3.12;93.92;98806.88;4987221;28;20050;-59
2024/02/08 04:01:03;;;;;;;2.67;1.45;;;;;;;3.11;94.01;98788.88;4987326;28;20066;-59
2024/02/08 04:03:53;;;;;;;1.50;0.77;;;;;;;3.10;94.11;98776.38;4987351;28;20527;-59
2024/02/08 04:06:37;;;;;;;5.43;1.10;;;;;;;3.10;94.35;98768.16;4987721;28;20073;-59
2024/02/08 04:09:16;;;;;;;1.95;1.13;;;;;;;3.10;94.36;98755.28;4986850;28;20054;-59
2024/02/08 04:53:48;;;;;;;13.02;2.38;;;;;;;3.05;97.45;98622.38;4993152;28;20511;-59
2024/02/08 04:56:18;;;;;;;7.63;1.63;;;;;;;3.04;97.75;98609.84;4993447;28;20046;-59
2024/02/08 04:58:46;;;;;;;18.45;3.72;;;;;;;3.05;97.92;98605.97;4993112;28;20507;-59
2024/02/08 05:01:37;;;;;;;8.38;2.70;;;;;;;3.06;98.11;98606.78;4979885;28;20427;-59
2024/02/08 05:04:05;;;;;;;6.13;2.25;;;;;;;3.04;97.75;98593.44;4993646;28;20054;-59
2024/02/08 05:06:35;;;;;;;7.18;2.35;;;;;;;3.03;98.40;98586.38;4992594;28;20053;-59
2024/02/08 05:09:02;;;;;;;7.57;2.38;;;;;;;3.05;98.15;98586.84;4993182;28;20047;-59
2024/02/08 05:11:30;;;;;;;9.38;2.30;;;;;;;3.07;98.28;98570.09;4992776;28;20652;-59
2024/02/08 05:14:01;;;;;;;5.00;2.67;;;;;;;3.06;98.46;98569.31;4993337;28;20501;-58
2024/02/08 05:16:36;;;;;;;6.85;2.65;;;;;;;3.07;98.90;98559.16;4992903;28;20046;-59
2024/02/08 05:19:04;;;;;;;13.75;2.20;;;;;;;3.08;98.92;98545.13;4992671;28;20046;-59
2024/02/08 05:21:32;;;;;;;9.38;2.30;;;;;;;3.08;99.22;98541.59;4992817;28;20053;-60
2024/02/08 05:24:01;;;;;;;12.73;3.58;;;;;;;3.10;99.49;98530.34;4992877;28;20604;-59
2024/02/08 05:26:31;;;;;;;13.10;2.75;;;;;;;3.09;99.89;98529.53;4993001;28;20062;-59
2024/02/08 05:29:00;;;;;;;6.85;2.72;;;;;;;3.09;99.49;98529.53;4992827;28;20503;-59
2024/02/08 05:31:27;;;;;;;13.63;4.63;;;;;;;3.08;100.00;98517.81;4991998;28;20449;-59
2024/02/08 05:33:56;;;;;;;13.38;2.92;;;;;;;3.08;99.99;98520.53;4992595;28;20042;-59
2024/02/08 05:36:24;;;;;;;8.57;1.95;;;;;;;3.06;100.00;98517.38;4992814;28;20057;-59
2024/02/08 05:38:56;;;;;;;12.57;2.10;;;;;;;3.05;100.00;98513.03;4992419;28;20030;-59
2024/02/08 05:41:24;;;;;;;11.02;2.53;;;;;;;3.04;100.00;98492.28;4993201;28;20061;-59
2024/02/08 05:43:52;;;;;;;10.57;2.17;;;;;;;3.04;100.00;98484.09;4993001;28;20053;-59
2024/02/08 05:46:28;;;;;;;12.02;3.35;;;;;;;3.05;100.00;98477.50;4992706;28;20054;-59
2024/02/08 05:49:11;;;;;;;7.50;2.50;;;;;;;3.07;100.00;98482.63;4992941;28;20049;-59
2024/02/08 05:51:46;;;;;;;10.90;3.30;;;;;;;3.11;100.00;98477.22;4992659;28;20049;-60
2024/02/08 05:54:20;;;;;;;12.10;2.70;;;;;;;3.12;100.00;98473.38;4975341;28;20449;-59
2024/02/08 05:56:48;;;;;;;13.45;4.40;;;;;;;3.14;100.00;98450.00;4989386;28;20049;-59
2024/02/08 05:59:19;;;;;;;6.73;3.10;;;;;;;3.16;100.00;98453.16;4987780;28;20050;-59
2024/02/08 06:01:50;;;;;;;14.00;3.65;;;;;;;3.17;100.00;98443.84;4976426;28;20472;-59
2024/02/08 06:04:24;;;;;;;13.10;4.20;;;;;;;3.21;100.00;98432.97;4989760;28;20057;-59
2024/02/08 06:07:07;;;;;;;10.85;4.32;;;;;;;3.22;100.00;98418.16;4989227;28;20041;-59
2024/02/08 06:12:23;;;;;;;15.88;3.67;;;;;;;3.24;100.00;98410.38;4990565;28;20057;-59
2024/02/08 06:15:14;;;;;;;11.52;4.25;;;;;;;3.25;100.00;98403.78;4989758;28;20046;-60
2024/02/08 06:17:45;;;;;;;6.03;2.78;;;;;;;3.26;100.00;98378.00;4989681;28;20457;-59
2024/02/08 06:20:14;;;;;;;10.60;3.90;;;;;;;3.22;100.00;98397.09;4989842;28;20061;-59
2024/02/08 06:22:43;;;;;;;10.50;4.22;;;;;;;3.23;100.00;98386.94;4988614;28;20588;-59
2024/02/08 06:25:31;;;;;;;9.20;4.13;;;;;;;3.24;100.00;98391.25;4990012;28;20058;-60
2024/02/08 06:28:01;;;;;;;12.32;3.38;;;;;;;3.27;100.00;98382.34;4990218;28;20096;-59
2024/02/08 06:30:31;;;;;;;5.10;1.48;;;;;;;3.25;100.00;98368.25;4989990;28;20062;-60
2024/02/08 06:33:16;;;;;;;2.25;1.60;;;;;;;3.20;100.00;98363.03;4989158;28;20053;-60
2024/02/08 06:35:45;;;;;;;9.48;4.18;;;;;;;3.17;100.00;98361.00;4989821;28;20042;-60
2024/02/08 06:38:28;;;;;;;10.02;2.25;;;;;;;3.15;100.00;98346.91;4990513;28;20046;-59
2024/02/08 06:40:56;;;;;;;7.90;1.95;;;;;;;3.13;100.00;98349.19;4989944;28;20054;-61
2024/02/08 06:43:44;;;;;;;5.50;2.35;;;;;;;3.14;100.00;98337.13;4989064;28;20069;-60
2024/02/08 06:46:17;;;;;;;5.93;2.25;;;;;;;3.13;100.00;98338.25;4989454;28;20046;-60
2024/02/08 07:37:13;;;;;;;6.55;2.25;;;;;;;3.11;100.00;98324.16;4989524;28;20045;-60
2024/02/08 07:38:53;;;;;;;11.68;4.43;;;;;;;2.80;100.00;98202.81;4987975;28;20058;-59
2024/02/08 07:41:21;;;;;;;11.30;3.58;;;;;;;2.81;100.00;98179.81;4987797;28;20531;-59
2024/02/08 07:43:55;;;;;;;5.78;2.35;;;;;;;2.81;100.00;98177.06;4986610;28;20050;-60
2024/02/08 07:46:29;;;;;;;10.20;2.40;;;;;;;2.81;100.00;98166.16;4988547;28;20566;-59
2024/02/08 07:49:04;;;;;;;13.27;3.13;;;;;;;2.81;100.00;98160.69;4988103;28;20046;-60
2024/02/08 07:51:33;;;;;;;8.27;3.70;;;;;;;2.82;100.00;98151.34;4988345;28;20054;-59
2024/02/08 07:54:10;;;;;;;13.75;3.08;;;;;;;2.83;100.00;98160.34;4988618;28;20404;-59
2024/02/08 07:56:46;;;;;;;16.58;3.38;;;;;;;2.83;100.00;98144.72;4988062;28;20053;-59
2024/02/08 07:59:26;;;;;;;10.13;3.03;;;;;;;2.79;100.00;98149.31;4987723;28;20046;-59
2024/02/08 08:01:57;;;;;;;7.93;2.80;;;;;;;2.72;100.00;98146.44;4984601;28;20061;-58
2024/02/08 08:07:25;;;;;;;17.08;4.00;;;;;;;2.67;100.00;98135.00;4962689;28;20046;-59
2024/02/08 08:09:59;;;;;;;6.63;3.50;;;;;;;2.67;100.00;98130.34;4988031;28;20428;-59
2024/02/08 08:12:30;;;;;;;5.53;3.08;;;;;;;2.68;100.00;98118.25;4987713;28;20062;-59
2024/02/08 08:17:40;;;;;;;9.48;3.17;;;;;;;2.70;100.00;98088.63;4988040;28;20058;-59
2024/02/08 08:23:00;;;;;;;9.35;3.53;;;;;;;2.75;100.00;98079.38;4986607;28;20408;-60
2024/02/08 08:25:44;;;;;;;12.38;4.75;;;;;;;2.77;100.00;98064.22;4988086;28;20051;-59
2024/02/08 08:28:39;;;;;;;10.18;4.55;;;;;;;2.81;100.00;98067.78;4987545;28;20042;-59
2024/02/08 08:31:35;;;;;;;21.67;3.50;;;;;;;2.82;100.00;98061.19;4986257;28;20050;-59
2024/02/08 08:35:37;;;;;;;0.00;0.00;;;;;;;2.82;100.00;98053.00;4987510;28;20524;-59
2024/02/08 08:37:38;;;;;;;0.00;0.00;;;;;;;2.84;100.00;98050.69;4987153;28;20039;-60
2024/02/08 08:40:20;;;;;;;0.03;0.03;;;;;;;2.87;100.00;98041.78;4987403;28;20048;-60
2024/02/08 08:42:54;;;;;;;0.00;0.00;;;;;;;2.93;100.00;98040.34;4977815;28;20050;-60
2024/02/08 08:45:22;;;;;;;5.00;3.60;;;;;;;2.97;100.00;98035.72;4986362;28;20042;-60
2024/02/08 08:48:00;;;;;;;0.00;0.00;;;;;;;3.00;100.00;98035.00;4978183;28;20416;-59
2024/02/08 08:50:31;;;;;;;0.00;0.00;;;;;;;3.05;100.00;98020.25;4986472;28;20053;-60
2024/02/08 08:53:07;;;;;;;0.00;0.00;;;;;;;3.07;100.00;98012.50;4985981;28;20068;-60
2024/02/08 08:55:39;;;;;;;0.00;0.00;;;;;;;3.10;100.00;98002.78;4988289;28;20043;-60
2024/02/08 08:58:12;;;;;;;0.00;0.00;;;;;;;3.14;100.00;97981.75;4987651;28;20053;-60
2024/02/08 09:00:46;;;;;;;;;;;;;;;3.17;100.00;97967.34;4988260;28;20436;-60
2024/02/08 09:03:26;;;;;;;0.00;0.00;;;;;;;3.19;100.00;97960.38;4986591;28;20597;-60
2024/02/08 09:05:57;;;;;;;0.00;0.00;;;;;;;3.24;100.00;97968.28;4986606;28;20117;-60
2024/02/08 09:08:34;;;;;;;0.03;0.03;;;;;;;3.29;100.00;97965.22;4987877;28;20045;-60
2024/02/08 09:11:03;;;;;;;0.00;0.00;;;;;;;3.35;100.00;97960.25;4980127;28;20065;-60
2024/02/08 09:13:37;;;;;;;0.00;0.00;;;;;;;3.38;100.00;97951.31;4987064;28;20146;-61
2024/02/08 09:16:52;;;;;;;0.00;0.00;;;;;;;3.44;100.00;97950.63;4986710;28;20381;-60
2024/02/08 09:21:32;;;;;;;0.00;0.00;;;;;;;3.56;100.00;97946.91;4987557;28;20046;-61
2024/02/08 09:24:05;;;;;;;0.00;0.00;;;;;;;3.60;100.00;97932.13;4987150;28;20539;-61
2024/02/08 09:26:51;;;;;;;0.00;0.00;;;;;;;3.63;100.00;97931.41;4987316;28;20050;-61
2024/02/08 09:29:25;;;;;;;1.25;1.25;;;;;;;3.68;100.00;97916.63;4986759;28;20050;-60
2024/02/08 09:32:14;;;;;;;0.00;0.00;;;;;;;3.72;100.00;97917.47;4989216;28;20496;-61
2024/02/08 09:34:45;;;;;;;2.45;2.25;;;;;;;3.75;100.00;97900.31;4990565;28;20057;-61
2024/02/08 09:37:15;;;;;;;0.00;0.00;;;;;;;3.77;100.00;97887.06;4985003;28;20069;-60
2024/02/08 09:42:26;;;;;;;0.00;0.00;;;;;;;3.84;100.00;97873.44;4991075;28;20616;-62
2024/02/08 09:45:04;;;;;;;0.10;0.10;;;;;;;3.87;100.00;97874.66;4990350;28;20054;-61
2024/02/08 09:47:35;;;;;;;0.00;0.00;;;;;;;3.88;100.00;97871.56;4990989;28;20050;-61
2024/02/08 09:50:07;;;;;;;0.00;0.00;;;;;;;3.88;100.00;97849.69;4989631;28;20062;-60
2024/02/08 09:52:45;;;;;;;0.00;0.00;;;;;;;3.90;100.00;97855.56;4990714;28;20054;-61
2024/02/08 09:55:19;;;;;;;0.00;0.00;;;;;;;3.92;100.00;97847.75;4990254;28;20544;-62
2024/02/08 09:57:48;;;;;;;0.20;0.20;;;;;;;3.94;100.00;97847.41;4990446;28;20065;-62
2024/02/08 10:00:54;;;;;;;0.00;0.00;;;;;;;3.96;100.00;97845.88;4988651;28;20081;-61
2024/02/08 10:03:06;;;;;;;0.47;0.30;;;;;;;3.99;100.00;97839.66;4990239;28;20050;-59
2024/02/08 10:05:51;;;;;;;0.00;0.00;;;;;;;4.01;100.00;97836.53;4989889;28;20050;-60
2024/02/08 10:08:50;;;;;;;0.00;0.00;;;;;;;4.03;100.00;97823.25;4988957;28;20050;-62
2024/02/08 10:11:23;;;;;;;1.08;0.60;;;;;;;4.06;100.00;97823.31;4987405;28;20073;-61
2024/02/08 10:13:56;;;;;;;0.00;0.00;;;;;;;4.07;100.00;97835.84;4989778;28;20057;-61
2024/02/08 10:16:30;;;;;;;0.00;0.00;;;;;;;4.08;100.00;97828.41;4989850;28;20050;-61
2024/02/08 10:19:03;;;;;;;0.32;0.32;;;;;;;4.09;100.00;97819.03;4989820;28;20050;-60
2024/02/08 10:21:35;;;;;;;0.00;0.00;;;;;;;4.11;100.00;97819.44;4988451;28;20042;-61
2024/02/08 10:26:54;;;;;;;0.00;0.00;;;;;;;4.16;100.00;97811.69;4990250;28;20049;-60
2024/02/08 10:29:25;;;;;;;0.00;0.00;;;;;;;4.17;100.00;97810.53;4989804;28;20073;-59
2024/02/08 10:31:59;;;;;;;0.00;0.00;;;;;;;4.19;100.00;97801.94;4988799;28;20046;-60
2024/02/08 10:34:39;;;;;;;0.00;0.00;;;;;;;4.20;100.00;97806.25;4989956;28;20054;-60
2024/02/08 10:37:26;;;;;;;0.00;0.00;;;;;;;4.21;100.00;97808.63;4989338;28;20065;-60
2024/02/08 10:39:59;;;;;;;0.00;0.00;;;;;;;4.21;100.00;97811.34;4990327;28;21308;-61
2024/02/08 10:42:38;;;;;;;0.00;0.00;;;;;;;4.21;100.00;97808.63;4989306;28;20042;-61
2024/02/08 10:45:06;;;;;;;0.00;0.00;;;;;;;4.24;100.00;97812.56;4987784;28;20064;-60
2024/02/08 10:47:39;;;;;;;0.00;0.00;;;;;;;4.24;100.00;97802.41;4989955;28;20054;-60
2024/02/08 10:50:19;;;;;;;0.00;0.00;;;;;;;4.26;100.00;97800.06;4989921;28;20073;-60
2024/02/08 10:52:49;;;;;;;0.00;0.00;;;;;;;4.28;100.00;97795.03;4988161;28;20057;-60
2024/02/08 10:55:30;;;;;;;0.00;0.00;;;;;;;4.30;100.00;97787.22;4989327;28;20054;-60
2024/02/08 10:58:21;;;;;;;0.00;0.00;;;;;;;4.31;100.00;97780.56;4989600;28;20526;-60
2024/02/08 11:01:06;;;;;;;0.00;0.00;;;;;;;4.31;100.00;97775.06;4988615;28;20050;-60
2024/02/08 11:03:36;;;;;;;0.75;0.75;;;;;;;4.29;100.00;97773.88;4977433;28;20054;-61
2024/02/08 11:06:25;;;;;;;0.00;0.00;;;;;;;4.29;100.00;97777.41;4988562;28;20046;-61
2024/02/08 11:09:14;;;;;;;0.00;0.00;;;;;;;4.30;100.00;97773.50;4988664;28;20046;-62
2024/02/08 11:11:59;;;;;;;0.60;0.60;;;;;;;4.30;100.00;97769.97;4987454;28;20408;-62
2024/02/08 11:14:33;;;;;;;0.00;0.00;;;;;;;4.30;100.00;97761.78;4988540;28;20054;-62
2024/02/08 11:17:05;;;;;;;0.00;0.00;;;;;;;4.29;100.00;97766.44;4988477;28;20054;-61
2024/02/08 11:19:34;;;;;;;0.00;0.00;;;;;;;4.30;100.00;97757.09;4987311;28;20043;-61
2024/02/08 11:22:39;;;;;;;0.00;0.00;;;;;;;4.32;100.00;97749.28;4987391;28;20058;-61
2024/02/08 11:25:23;;;;;;;0.00;0.00;;;;;;;4.36;100.00;97743.03;4987018;28;20050;-60
2024/02/08 11:27:52;;;;;;;0.00;0.00;;;;;;;4.34;100.00;97746.19;4985026;28;20050;-61
2024/02/08 11:30:34;;;;;;;0.00;0.00;;;;;;;4.36;100.00;97746.56;4977067;28;20050;-62
2024/02/08 11:33:03;;;;;;;0.00;0.00;;;;;;;4.39;100.00;97736.81;4987270;28;20062;-61
2024/02/08 11:35:35;;;;;;;0.00;0.00;;;;;;;4.40;100.00;97736.44;4986302;28;20501;-61
2024/02/08 11:38:09;;;;;;;0.00;0.00;;;;;;;4.44;100.00;97745.47;4987368;28;20057;-61
2024/02/08 11:40:37;;;;;;;0.00;0.00;;;;;;;4.46;100.00;97725.91;4970313;28;20053;-60
2024/02/08 11:43:07;;;;;;;0.00;0.00;;;;;;;4.46;100.00;97732.19;4986913;28;20085;-60
2024/02/08 11:45:36;;;;;;;0.00;0.00;;;;;;;4.48;100.00;97713.41;4985819;28;20100;-61
2024/02/08 11:48:08;;;;;;;0.00;0.00;;;;;;;4.52;100.00;97707.97;4985466;28;20050;-62
2024/02/08 11:50:36;;;;;;;0.00;0.00;;;;;;;4.52;100.00;97707.97;4987335;28;20053;-61
2024/02/08 11:53:04;;;;;;;0.00;0.00;;;;;;;4.55;100.00;97699.00;4986682;28;20749;-61
2024/02/08 11:55:33;;;;;;;0.00;0.00;;;;;;;4.58;100.00;97703.72;4986412;28;20042;-61
2024/02/08 11:58:05;;;;;;;0.00;0.00;;;;;;;4.60;100.00;97698.66;4986799;28;20056;-62
2024/02/08 12:00:48;;;;;;;0.00;0.00;;;;;;;4.60;100.00;97688.47;4986904;28;20077;-61
2024/02/08 12:03:17;;;;;;;0.00;0.00;;;;;;;4.65;100.00;97676.38;4985765;28;20054;-61
2024/02/08 12:05:57;;;;;;;0.00;0.00;;;;;;;4.68;100.00;97686.56;4986620;28;20052;-62
2024/02/08 12:08:25;;;;;;;0.00;0.00;;;;;;;4.69;100.00;97669.75;4984316;28;20677;-62
2024/02/08 12:11:07;;;;;;;0.00;0.00;;;;;;;4.71;100.00;97672.13;4986642;28;20053;-61
2024/02/08 12:13:38;;;;;;;0.00;0.00;;;;;;;4.73;100.00;97665.09;4986705;28;20054;-60
2024/02/08 12:16:07;;;;;;;0.00;0.00;;;;;;;4.77;100.00;97660.41;4986093;28;20057;-60
2024/02/08 12:18:36;;;;;;;0.00;0.00;;;;;;;4.81;100.00;97671.41;4986885;28;20054;-61
2024/02/08 12:21:08;;;;;;;0.00;0.00;;;;;;;4.82;100.00;97668.25;4986827;28;20507;-61
2024/02/08 12:23:40;;;;;;;0.00;0.00;;;;;;;4.82;100.00;97673.75;4986870;28;20092;-60
2024/02/08 12:26:10;;;;;;;0.00;0.00;;;;;;;4.82;100.00;97664.72;4982512;28;20074;-60
2024/02/08 12:28:42;;;;;;;0.00;0.00;;;;;;;4.82;100.00;97651.81;4986809;28;20153;-61
2024/02/08 12:31:16;;;;;;;0.00;0.00;;;;;;;4.86;100.00;97640.88;4986620;28;20073;-60
2024/02/08 12:33:50;;;;;;;0.00;0.00;;;;;;;4.90;100.00;97641.69;4986095;28;20055;-61
2024/02/08 12:36:25;;;;;;;0.00;0.00;;;;;;;4.95;100.00;97627.59;4986606;28;20042;-62
2024/02/08 12:38:54;;;;;;;;;;;;;;;4.97;100.00;97630.78;4985149;28;20047;-61
2024/02/08 12:41:22;;;;;;;1.27;1.25;;;;;;;4.97;100.00;97619.81;4985955;28;19932;-61
2024/02/08 12:43:53;;;;;;;0.00;0.00;;;;;;;5.01;100.00;97620.59;4984879;28;20057;-61
2024/02/08 12:46:21;;;;;;;0.00;0.00;;;;;;;5.02;100.00;97616.69;4986483;28;20084;-62
2024/02/08 12:48:48;;;;;;;0.00;0.00;;;;;;;5.01;100.00;97604.16;4985056;28;20042;-61
2024/02/08 12:51:20;;;;;;;0.00;0.00;;;;;;;5.03;100.00;97604.53;4986459;28;20061;-61
2024/02/08 12:53:49;;;;;;;0.00;0.00;;;;;;;5.07;100.00;97596.34;4977197;28;20389;-62
2024/02/08 12:56:19;;;;;;;0.00;0.00;;;;;;;5.09;100.00;97600.25;4986957;28;20528;-61
2024/02/08 12:58:47;;;;;;;0.00;0.00;;;;;;;5.08;100.00;97590.50;4986473;28;20061;-65
2024/02/08 13:01:18;;;;;;;0.00;0.00;;;;;;;5.08;100.00;97589.69;4986455;28;20065;-61
2024/02/08 13:03:46;;;;;;;0.00;0.00;;;;;;;5.05;100.00;97583.03;4986722;28;20047;-64
2024/02/08 13:06:14;;;;;;;0.10;0.10;;;;;;;5.08;100.00;97582.25;4989186;28;20050;-61
2024/02/08 13:08:45;;;;;;;0.00;0.00;;;;;;;5.10;100.00;97585.41;4985187;28;20039;-61
2024/02/08 13:11:20;;;;;;;0.00;0.00;;;;;;;5.08;100.00;97578.72;4990858;28;20489;-62
2024/02/08 13:13:48;;;;;;;0.00;0.00;;;;;;;5.09;100.00;97574.81;4990245;28;20122;-62
2024/02/08 13:16:16;;;;;;;0.00;0.00;;;;;;;5.08;100.00;97576.78;4990324;28;20536;-60
2024/02/08 13:18:54;;;;;;;0.00;0.00;;;;;;;5.06;100.00;97573.63;4989858;28;20050;-62
2024/02/08 13:21:24;;;;;;;0.63;0.55;;;;;;;5.05;100.00;97571.28;4987748;28;20046;-62
2024/02/08 13:23:55;;;;;;;0.00;0.00;;;;;;;5.06;100.00;97565.41;4985910;28;20405;-60
2024/02/08 13:26:25;;;;;;;0.00;0.00;;;;;;;5.06;100.00;97562.66;4971690;28;20061;-61
2024/02/08 13:29:03;;;;;;;0.00;0.00;;;;;;;5.07;100.00;97558.75;4987199;28;20061;-61
2024/02/08 13:31:31;;;;;;;0.00;0.00;;;;;;;5.08;100.00;97554.06;4989765;28;20587;-62
2024/02/08 13:34:00;;;;;;;0.00;0.00;;;;;;;5.08;100.00;97565.81;4990387;28;20049;-62
2024/02/08 13:36:28;;;;;;;0.00;0.00;;;;;;;5.09;100.00;97550.91;4989902;28;20065;-62
2024/02/08 13:38:56;;;;;;;0.00;0.00;;;;;;;5.06;100.00;97543.47;4989727;28;20042;-62
2024/02/08 13:41:24;;;;;;;0.00;0.00;;;;;;;5.07;100.00;97547.78;4989453;28;20057;-62
2024/02/08 13:43:51;;;;;;;0.00;0.00;;;;;;;5.08;100.00;97538.41;4989920;28;20054;-61
2024/02/08 13:46:21;;;;;;;0.00;0.00;;;;;;;5.05;100.00;97530.94;4990442;28;20396;-62
2024/02/08 13:48:49;;;;;;;0.00;0.00;;;;;;;5.03;100.00;97532.50;4989818;28;20050;-61
2024/02/08 13:51:16;;;;;;;0.00;0.00;;;;;;;5.02;100.00;97522.69;4988951;28;20054;-62